ADDS METAR Data INFO
IDs: Format: Raw Decoded Include TAF

Data at: 1010 UTC 22 May 2018

KETH 220951Z AUTO 11004KT 1/4SM FG OVC002 13/13 A3001 RMK AO2
KETH 220931Z AUTO 13004KT 1/2SM FG OVC002 13/13 A3001 RMK AO2
KETH 220911Z AUTO 12003KT 1SM BR OVC002 14/13 A3001 RMK AO2
KETH 220851Z AUTO 13003KT 1/2SM FG OVC002 13/13 A3000 RMK AO2
KETH 220831Z AUTO 14004KT 3/4SM BR OVC002 14/12 A3000 RMK AO2
KETH 220811Z AUTO 16003KT 3SM BR OVC004 14/12 A3000 RMK AO2
KETH 220751Z AUTO 14003KT 4SM BR OVC006 14/12 A3000 RMK AO2
KETH 220731Z AUTO 14004KT 4SM BR SCT006 BKN020 13/12 A3001 RMK AO2
KETH 220711Z AUTO 12003KT 5SM BR OVC020 13/12 A3001 RMK AO2
KETH 220652Z AUTO 12005KT 5SM BR OVC020 14/12 A3000 RMK AO2
KETH 220632Z AUTO 12005KT 5SM BR SCT007 BKN022 13/12 A3000 RMK AO2
KETH 220611Z AUTO 13005KT 5SM BR SCT007 SCT026 SCT033 13/12 A3000 RMK AO2
KETH 220551Z AUTO 12005KT 7SM SCT026 BKN031 14/12 A3000 RMK AO2
KETH 220531Z AUTO 13006KT 7SM SCT027 14/12 A3000 RMK AO2
KETH 220511Z AUTO 12007KT 7SM OVC027 14/12 A3000 RMK AO2
KETH 220451Z AUTO 12008KT 10SM SCT019 OVC027 14/12 A3000 RMK AO2
KETH 220432Z AUTO 13006KT 10SM BKN019 OVC025 14/12 A3001 RMK AO2
KETH 220411Z AUTO 13007KT 10SM OVC019 15/12 A3000 RMK AO2
KETH 220352Z AUTO 13007KT 10SM OVC019 14/12 A3000 RMK AO2
KETH 220331Z AUTO 12007KT 10SM OVC019 14/12 A3000 RMK AO2
KETH 220311Z AUTO 13005KT 10SM BKN019 14/12 A3000 RMK AO2
KETH 220251Z AUTO 14004KT 10SM SCT019 14/12 A3000 RMK AO2
KETH 220231Z AUTO 12007KT 10SM SCT031 15/12 A2999 RMK AO2
KETH 220211Z AUTO 13009KT 10SM SCT019 OVC031 16/12 A2999 RMK AO2
KETH 220152Z AUTO 12006KT 10SM BKN019 OVC031 16/12 A2999 RMK AO2
KETH 220132Z AUTO 12006KT 10SM OVC017 16/12 A2999 RMK AO2
KETH 220111Z AUTO 13007KT 10SM OVC017 16/12 A3000 RMK AO2
KETH 220051Z AUTO 13005KT 10SM OVC019 16/12 A3000 RMK AO2
KETH 220031Z AUTO 13008KT 10SM OVC019 17/12 A3000 RMK AO2
KETH 220011Z AUTO 14004KT 10SM OVC019 17/12 A3000 RMK AO2
KETH 212352Z AUTO 14008KT 10SM OVC017 17/12 A3000 RMK AO2
KETH 212331Z AUTO 14006KT 10SM OVC015 17/12 A3000 RMK AO2
KETH 212312Z AUTO 13009KT 10SM OVC017 17/12 A3000 RMK AO2
KETH 212251Z AUTO 13009KT 10SM OVC019 17/12 A3000 RMK AO2
KETH 212231Z AUTO 13010KT 10SM OVC019 17/12 A3000 RMK AO2
KETH 212211Z AUTO 12010KT 10SM OVC019 17/12 A3000 RMK AO2
KETH 212151Z AUTO 14008KT 10SM BKN019 17/12 A3001 RMK AO2
KETH 212131Z AUTO 13009KT 5SM HZ SCT021 18/12 A3001 RMK AO2
KETH 212111Z AUTO 14010KT 10SM OVC021 18/12 A3001 RMK AO2
KETH 212051Z AUTO 14011KT 10SM OVC021 18/12 A3002 RMK AO2
KETH 212031Z AUTO 13011KT 10SM OVC023 18/12 A3002 RMK AO2
KETH 212011Z AUTO 14012KT 10SM BKN023 19/12 A3002 RMK AO2
KETH 211952Z AUTO 14012G16KT 10SM BKN023 19/12 A3002 RMK AO2
KETH 211931Z AUTO 14010KT 10SM SCT023 BKN048 19/12 A3002 RMK AO2
KETH 211912Z AUTO 11010G16KT 10SM SCT025 19/12 A3002 RMK AO2
KETH 211851Z AUTO 13013KT 10SM BKN025 19/12 A3002 RMK AO2
KETH 211831Z AUTO 13013KT 10SM SCT027 19/12 A3003 RMK AO2
KETH 211811Z AUTO 13006KT 10SM BKN027 19/11 A3003 RMK AO2
KETH 211751Z AUTO 09007KT 10SM OVC025 18/11 A3004 RMK AO2
KETH 211731Z AUTO 12007KT 10SM OVC025 17/11 A3004 RMK AO2
KETH 211712Z AUTO 14008KT 10SM OVC027 17/11 A3005 RMK AO2
KETH 211651Z AUTO 13008KT 10SM OVC027 18/11 A3005 RMK AO2
KETH 211631Z AUTO 11008KT 10SM OVC025 18/10 A3005 RMK AO2
KETH 211612Z AUTO 10007KT 10SM OVC023 17/10 A3005 RMK AO2
KETH 211551Z AUTO 09008KT 10SM OVC023 17/08 A3005 RMK AO2
KETH 211531Z AUTO 09007KT 10SM OVC023 17/07 A3006 RMK AO2
KETH 211511Z AUTO 11006KT 10SM OVC025 16/07 A3007 RMK AO2
KETH 211452Z AUTO 10007KT 10SM OVC027 16/07 A3007 RMK AO2
KETH 211432Z AUTO 11006KT 10SM BKN027 OVC031 16/06 A3008 RMK AO2
KETH 211412Z AUTO 11005KT 10SM OVC032 16/06 A3008 RMK AO2
KETH 211351Z AUTO 10003KT 10SM OVC034 15/06 A3008 RMK AO2
KETH 211332Z AUTO 00000KT 10SM BKN038 BKN050 15/04 A3008 RMK AO2
KETH 211311Z AUTO 11004KT 10SM SCT050 14/04 A3008 RMK AO2
KETH 211251Z AUTO 10003KT 10SM BKN060 BKN080 14/04 A3008 RMK AO2
KETH 211231Z AUTO 11004KT 10SM BKN060 13/04 A3009 RMK AO2
KETH 211211Z AUTO 10004KT 10SM SCT060 SCT090 13/03 A3009 RMK AO2
KETH 211152Z AUTO 09004KT 10SM SCT050 BKN060 BKN085 13/03 A3009 RMK AO2
KETH 211132Z AUTO 10004KT 10SM OVC050 13/03 A3009 RMK AO2
KETH 211111Z AUTO 11005KT 10SM BKN050 OVC055 13/02 A3009 RMK AO2
KETH 211052Z AUTO 11006KT 10SM OVC055 13/02 A3009 RMK AO2
KETH 211032Z AUTO 11005KT 10SM OVC055 12/02 A3009 RMK AO2
KETH 211012Z AUTO 11005KT 10SM OVC065 12/02 A3009 RMK AO2
KETH 210951Z AUTO 11005KT 10SM OVC065 11/02 A3009 RMK AO2
KETH 210931Z AUTO 10006KT 10SM SCT065 SCT100 11/01 A3010 RMK AO2
KETH 210912Z AUTO 10006KT 10SM CLR 11/01 A3010 RMK AO2
KETH 210852Z AUTO 10005KT 10SM SCT095 11/01 A3010 RMK AO2
KETH 210832Z AUTO 10005KT 10SM BKN095 11/01 A3011 RMK AO2
KETH 210812Z AUTO 09004KT 10SM SCT095 10/00 A3011 RMK AO2
KETH 210752Z AUTO 10004KT 10SM CLR 10/00 A3012 RMK AO2
KETH 210732Z AUTO 10003KT 10SM CLR 10/00 A3012 RMK AO2
KETH 210351Z AUTO 08005KT 10SM CLR 12/M03 A3014 RMK AO2
KETH 210331Z AUTO 08004KT 10SM CLR 12/M03 A3014 RMK AO2
KETH 210311Z AUTO 08005KT 10SM CLR 13/M03 A3014 RMK AO2
KETH 210251Z AUTO 08005KT 10SM CLR 13/M04 A3014 RMK AO2
KETH 210231Z AUTO 08005KT 10SM CLR 14/M04 A3013 RMK AO2
KETH 210212Z AUTO 10006KT 10SM CLR 15/M04 A3013 RMK AO2
KETH 210152Z AUTO 07005KT 10SM CLR 18/M05 A3013 RMK AO2
KETH 210132Z AUTO 07007KT 10SM CLR 19/M05 A3013 RMK AO2
KETH 210111Z AUTO 08008KT 10SM CLR 21/M06 A3013 RMK AO2
KETH 210051Z AUTO 10009KT 10SM CLR 21/M06 A3013 RMK AO2
KETH 210032Z AUTO 08010KT 10SM CLR 21/M06 A3013 RMK AO2
KETH 210012Z AUTO 09009G16KT 10SM CLR 22/M07 A3013 RMK AO2
KETH 202351Z AUTO 10009KT 10SM CLR 22/M07 A3013 RMK AO2
KETH 202331Z AUTO 08009KT 10SM CLR 22/M08 A3014 RMK AO2
KETH 202311Z AUTO 08008KT 10SM CLR 22/M08 A3014 RMK AO2
KETH 202252Z AUTO 09008KT 10SM CLR 22/M07 A3014 RMK AO2
KETH 202231Z AUTO 08008KT 10SM CLR 22/M09 A3015 RMK AO2
KETH 202212Z AUTO 10005G08KT 10SM CLR 22/M08 A3015 RMK AO2